Marcos Farias

Olheiro - Flamengo
4 Abr 2027
Domingo
Processo

Personalidade

Adaptabilidade (17) Ambição (11) Controvérsia (7) Lealdade (15) Pressão (7) Profissionalismo (13) Espírito Esportivo (1) Temperamento (17)

Perfil

Estilo de Treinamento Democrático
Licença Continental C
Determinação 14
Gestão de Pessoas 15
Motivação 14
Disciplina 15
Satisfação no Trabalho
75%
Fadiga
0%
Função Olheiro
Salário 19.4K p/s
Contrato 14.03.2030

Desempenho

Comportamento Bom
Eficácia do Treinamento
45%
Desenvolvimento do Jogador
75%
Prevenção de Lesões
65%
Implementação Tática
70%

Eventos Recentes

Avaliou um jogador agora
Participou de uma reunião de recrutamento agora
Avaliou um jogador agora
Avaliou um jogador agora
Avaliou um jogador agora
Avaliou um jogador agora
Avaliou um jogador 7d atrás
Avaliou um jogador 7d atrás

Monitorando agora

159
Jogador Clube Status Habilidade Confiança Observado Última observação Último voto
Enzo Barrenechea Benfica Ativo 161 / 152 40% 6 03.04.2027 -
Jake O'Brien Everton Ativo 142 / 143 40% 2 03.04.2027 -
Welington Southampton Ativo 141 / 132 40% 1 03.04.2027 -
Víctor Gómez Braga Ativo 145 / 136 40% 6 02.04.2027 -
Jakub Kiwior Porto Ativo 149 / 156 40% 4 02.04.2027 -
Borja Sainz Porto Ativo 145 / 141 40% 3 02.04.2027 -
Mason Greenwood Fenerbahce Ativo 169 / 153 40% 2 02.04.2027 -
Rodrigo Pinheiro Famalicao Ativo 129 / 127 40% 3 02.04.2027 -
Manu Pozo Torreense Ativo 115 / 116 40% 1 02.04.2027 -
Pau Víctor Braga Ativo 147 / 133 40% 5 01.04.2027 -
Brennan Johnson Everton Ativo 134 / 149 40% 1 01.04.2027 -
Khvicha Kvaratskhelia Paris Saint-Germain Ativo 168 / 162 40% 5 31.03.2027 -
Ander Barrenetxea Real Sociedad Ativo 143 / 154 40% 3 31.03.2027 -
Carl Rushworth Coventry City Ativo 146 / 136 40% 2 31.03.2027 -
Senne Lammens Manchester United Ativo 142 / 150 40% 1 31.03.2027 -
Guillaume Restes Toulouse FC Ativo 127 / 144 40% 1 31.03.2027 -
Amadou Onana Aston Villa Ativo 153 / 153 40% 2 29.03.2027 -
Boubacar Kamara Aston Villa Ativo 176 / 162 40% 3 29.03.2027 -
Finn van Breemen Famalicao Ativo 110 / 124 40% 2 29.03.2027 -
Iván Fresneda Sporting CP Ativo 149 / 142 40% 2 27.03.2027 -
David Sousa Casa Pia Ativo 132 / 118 40% 1 27.03.2027 -
Pedro Porro Tottenham Ativo 150 / 147 40% 3 26.03.2027 -
Noah Sadiki Sunderland Ativo 142 / 147 40% 2 26.03.2027 -
Harry Clarke Preston Ativo 139 / 123 40% 1 25.03.2027 -
Leonardo Lelo Braga Ativo 137 / 134 40% 1 25.03.2027 -
Sorriso Famalicao Ativo 132 / 131 40% 4 23.03.2027 -
Dylan Collard Lusitânia Lourosa Ativo 105 / 114 40% 1 22.03.2027 -
Gabriel Gudmundsson Leeds United Ativo 146 / 142 40% 1 22.03.2027 -
Geny Sporting CP Ativo 150 / 145 40% 2 21.03.2027 -
Chiquinho Alverca Ativo 141 / 132 40% 2 21.03.2027 -
Abraham Marcus Estrela da Amadora Ativo 114 / 127 40% 3 19.03.2027 -
Cesar Corona Veracruz Ativo 149 / 131 40% 1 19.03.2027 -
Vinícius Lopes Santa Clara Ativo 121 / 122 40% 4 17.03.2027 -
Gabriel Brazão Santos Ativo 144 / 131 40% 2 17.03.2027 -
James Trafford Leeds United Ativo 143 / 148 40% 2 17.03.2027 -
Tom Fellows Southampton Ativo 139 / 134 40% 1 17.03.2027 -
Xavi Simons Tottenham Ativo 157 / 156 40% 1 17.03.2027 -
Jordan Holsgrove Estoril Praia Ativo 124 / 133 40% 1 16.03.2027 -
Loum Tchaouna Coventry City Ativo 139 / 140 40% 2 15.03.2027 -
Morgan Rogers Chelsea Ativo 155 / 164 40% 1 15.03.2027 -
Percy Erasmus SuperSport United Ativo 135 / 121 40% 4 12.03.2027 -
Marco Carnesecchi Atalanta Ativo 150 / 156 40% 2 12.03.2027 -
Rodrigo Zalazar Sporting CP Ativo 163 / 151 40% 2 12.03.2027 -
Elia Caprile Cagliari Ativo 150 / 140 40% 1 12.03.2027 -
Lucas Chevalier Paris Saint-Germain Ativo 162 / 160 40% 2 10.03.2027 -
Edoardo Corvi Parma Ativo 128 / 135 40% 2 10.03.2027 -
Marcel Ruiz Toluca Ativo 148 / 143 40% 1 10.03.2027 -
Ernest Nuamah Olympique Lyonnais Ativo 130 / 140 40% 1 10.03.2027 -
Alberto Costa Porto Ativo 157 / 141 40% 7 06.03.2027 -
João Mendes Vitoria Guimaraes Ativo 110 / 124 40% 1 06.03.2027 -
Matheus Dias Nacional Ativo 114 / 127 40% 2 05.03.2027 -
Juan María Alcedo Torreense Ativo 119 / 114 40% 1 05.03.2027 -
Figueiredo Alverca Ativo 122 / 128 40% 5 04.03.2027 -
Ole Pohlmann Rio Ave Ativo 111 / 125 40% 2 03.03.2027 -
Brian Rodríguez Club America Ativo 138 / 127 40% 1 03.03.2027 -
Reiss Nelson AC Milan Ativo 154 / 142 40% 3 01.03.2027 -
Mario Dorgeles Braga Ativo 123 / 131 40% 2 28.02.2027 -
Ferran Torres Paris Saint-Germain Ativo 173 / 163 40% 1 28.02.2027 -
Đorđe Petrović Bournemouth Ativo 149 / 149 40% 1 26.02.2027 -
Samuel Soares Benfica Ativo 120 / 128 40% 1 26.02.2027 -
Axel Alderweireld KV Oostende Ativo 132 / 146 40% 1 26.02.2027 -
Robin Roefs Sunderland Ativo 132 / 150 40% 3 23.02.2027 -
Robin Risser RC Lens Ativo 128 / 146 40% 1 23.02.2027 -
Luis Quintero Torreense Ativo 134 / 124 40% 1 22.02.2027 -
Gabri Veiga Porto Ativo 142 / 155 40% 1 15.02.2027 -
Mohamed-Ali Cho Hull City Ativo 145 / 137 40% 1 15.02.2027 -
Yehvann Diouf OGC Nice Ativo 137 / 136 40% 2 14.02.2027 -
Savinho Tottenham Ativo 167 / 156 40% 1 11.02.2027 -
Gianluigi Donnarumma Manchester City Ativo 170 / 172 40% 1 10.02.2027 -
Iñaki Peña Panathinaikos Ativo 141 / 142 40% 1 04.02.2027 -
Cezary Miszta Rio Ave Ativo 137 / 136 40% 1 04.02.2027 -
Mads Hermansen West Ham United Ativo 146 / 140 40% 1 04.02.2027 -
Iñaki Peña Panathinaikos Perdido 133 / 140 40% 1 28.12.2026 -
Patrick Sequeira Casa Pia Ativo 125 / 120 40% 1 28.12.2026 -
Wesley Fofana Chelsea Ativo 149 / 164 40% 1 30.11.2026 -
Jesús Areso Athletic Bilbao Ativo 154 / 141 40% 1 30.11.2026 -
Adrien Truffert Bournemouth Ativo 139 / 153 40% 3 26.11.2026 -
Yehor Yarmoliuk Brentford Ativo 144 / 152 40% 2 26.11.2026 -
Victor Froholdt Porto Ativo 149 / 155 40% 3 24.11.2026 -
Elliot Anderson Manchester City Ativo 139 / 153 40% 1 24.11.2026 -
Ousmane Diomande Nottingham Forest Ativo 162 / 155 40% 1 24.11.2026 -
Yanis Begraoui Estoril Praia Ativo 141 / 133 40% 3 23.11.2026 -
Zé Leite Oliveirense Ativo 125 / 111 40% 2 23.11.2026 -
Adriano Bertaccini Anderlecht Ativo 122 / 121 40% 1 23.11.2026 -
Nathan Fogaça Fortaleza Ativo 119 / 125 40% 1 21.11.2026 -
Tijjani Reijnders Al-Qadisiyah Ativo 150 / 162 40% 2 20.11.2026 -
Yuri Alberto Corinthians Perdido 142 / 137 40% 5 19.11.2026 -
Lucas Duarte Felgueiras Ativo 112 / 108 40% 1 19.11.2026 -
Rico Lewis Manchester City Ativo 153 / 149 40% 1 18.11.2026 -
Óscar Mingueza Crystal Palace Ativo 153 / 148 40% 1 18.11.2026 -
Antonio Blanco Alavés Perdido 154 / 139 40% 1 18.11.2026 -
Peque Sevilla Ativo 143 / 137 40% 1 18.11.2026 -
Exequiel Palacios Ipswich Town Ativo 150 / 155 40% 5 16.11.2026 -
Bruno Guimarães Arsenal Ativo 175 / 168 40% 2 16.11.2026 -
Oumar Camara Vitoria Guimaraes Ativo 131 / 130 40% 2 15.11.2026 -
Karl Etta Eyong Levante Ativo 141 / 142 40% 1 15.11.2026 -
Camilo Durán Bloemfontein Celtic Ativo 115 / 124 40% 2 13.11.2026 -
José Manuel López Palmeiras Ativo 125 / 134 40% 1 13.11.2026 -
Kevin Schade Brentford Ativo 155 / 152 40% 1 13.11.2026 -
Nico González Newcastle United Ativo 161 / 157 40% 2 11.11.2026 -
Noussair Mazraoui Manchester United Ativo 162 / 151 40% 1 11.11.2026 -
Matthijs de Ligt Manchester United Ativo 146 / 158 40% 3 10.11.2026 -
Marcos Antonio Sport Recife Ativo 140 / 140 40% 2 10.11.2026 -
Jalen Blesa Rio Ave Ativo 119 / 117 40% 4 08.11.2026 -
Victor Osimhen Galatasaray Ativo 170 / 163 40% 1 08.11.2026 -
Vangelis Pavlidis Benfica Ativo 150 / 157 40% 3 04.11.2026 -
Henrique Araújo Casa Pia Ativo 129 / 120 40% 1 02.11.2026 -
Mateo Retegui Al-Qadisiyah Ativo 152 / 153 40% 2 01.11.2026 -
Gonçalo Inácio Sporting CP Ativo 152 / 146 40% 3 31.10.2026 -
Zeno Debast Sporting CP Ativo 136 / 144 40% 4 30.10.2026 -
Pape Guèye Villarreal Ativo 156 / 150 40% 1 30.10.2026 -
Mouctar Diakhaby Valencia Ativo 129 / 140 40% 1 28.10.2026 -
Nordi Mukiele Sunderland Ativo 151 / 144 40% 1 24.10.2026 -
Leandro Barreiro Benfica Ativo 132 / 136 40% 2 23.10.2026 -
Ramón Terrats Getafe Ativo 131 / 138 40% 1 23.10.2026 -
Michy Fellaini KV Oostende Ativo 143 / 135 40% 1 22.10.2026 -
Alexandre Duville-Parsemain Moreirense Ativo 115 / 113 40% 1 21.10.2026 -
Tamble Monteiro Rio Ave Ativo 120 / 119 40% 1 20.10.2026 -
Lewis Hall Newcastle United Ativo 155 / 149 40% 3 18.10.2026 -
Alexis Mac Allister Liverpool Ativo 151 / 162 40% 1 18.10.2026 -
Ilaix Moriba Celta Ativo 153 / 153 40% 1 18.10.2026 -
Frenkie de Jong Barcelona Ativo 158 / 163 40% 1 15.10.2026 -
Mats Wieffer Brighton Ativo 141 / 147 40% 1 11.10.2026 -
Anton Stach Leeds United Ativo 142 / 148 40% 1 11.10.2026 -
Ismaël Bennacer Palmeiras Ativo 145 / 148 40% 1 09.10.2026 -
José Ángel Carmona Sevilla Ativo 141 / 145 40% 1 09.10.2026 -
Alejandro Piedrahita Deportivo Pereira Ativo 121 / 122 40% 1 08.10.2026 -
Ibrahim Sangaré Nottingham Forest Ativo 146 / 148 40% 1 07.10.2026 -
Eduardo Quaresma Sporting CP Ativo 147 / 139 40% 2 06.10.2026 -
Richard Ríos Benfica Ativo 141 / 139 40% 2 03.10.2026 -
Sander Berge Fulham Ativo 150 / 139 40% 1 03.10.2026 -
Iván Martín Racing Club Ativo 146 / 144 40% 1 03.10.2026 -
Ethan Ampadu Leeds United Ativo 145 / 138 40% 1 30.09.2026 -
André Wolverhampton Ativo 143 / 143 40% 1 30.09.2026 -
Florentino Luís Ipswich Town Ativo 136 / 136 40% 1 28.09.2026 -
Louis Munteanu DC United Ativo 111 / 128 40% 2 26.09.2026 -
Deniz Gül Porto Ativo 134 / 133 40% 1 26.09.2026 -
Alfonso Trezza Arouca Ativo 134 / 125 40% 2 25.09.2026 -
Roberto Fernández Braga Ativo 130 / 138 40% 1 23.09.2026 -
Ola Aina Nottingham Forest Ativo 137 / 147 40% 1 20.09.2026 -
Mateo Mendoza Godoy Cruz Ativo 118 / 125 40% 1 20.09.2026 -
Giorgos Koutsias Famalicao Ativo 103 / 122 40% 1 19.09.2026 -
Toni Tamarit Alverca Ativo 126 / 118 40% 1 19.09.2026 -
Maxence Lacroix Chelsea Ativo 150 / 151 40% 1 17.09.2026 -
Nathan Collins Brentford Ativo 154 / 144 40% 1 17.09.2026 -
Alexander Aravena Portland Timbers Ativo 132 / 121 40% 1 16.09.2026 -
Pablo Rosario Porto Ativo 126 / 140 40% 1 13.09.2026 -
Neco Williams Nottingham Forest Ativo 152 / 141 40% 1 12.09.2026 -
Joe Gomez Liverpool Ativo 147 / 147 40% 1 10.09.2026 -
Conor Bradley Liverpool Ativo 144 / 155 40% 1 09.09.2026 -
Tadeo Allende Inter Miami CF Ativo 132 / 120 40% 1 07.09.2026 -
Fotis Ioannidis Sporting CP Ativo 146 / 136 40% 1 07.09.2026 -
Francisco Petrasso Rio Ave Ativo 107 / 124 40% 2 10.08.2026 -
Tomás Araújo Benfica Ativo 149 / 142 40% 2 10.08.2026 -
Espen van Ee Arouca Ativo 105 / 115 40% 1 10.08.2026 -
Francisco Chissumba Braga Ativo 124 / 117 40% 1 06.08.2026 -
Ibrahima Ba Sporting CP Ativo 114 / 121 40% 1 03.08.2026 -
Lohann Doucet Vitoria Guimaraes Ativo 121 / 119 40% 1 01.08.2026 -
Taichi Fukui Arouca Ativo 113 / 124 40% 1 01.08.2026 -